Time;durP1;ratioP1;P1;durP2;ratioP2;P2;SDS_P1;SDS_P2;PMS_P1;PMS_P2;Temp;Humidity;BMP_temperature;BMP_pressure;BME280_temperature;BME280_humidity;BME280_pressure;Samples;Min_cycle;Max_cycle;Signal;HPM_P1;HPM_P2
2022/03/04 00:00:51;;;;;;;28.75;13.52;;;0.70;99.90;;;;;;5078310;28;20040;-93
2022/03/04 00:03:17;;;;;;;27.50;12.30;;;0.70;99.90;;;;;;5094940;28;20051;-93
2022/03/04 00:05:43;;;;;;;28.27;12.90;;;1.20;99.90;;;;;;5078360;28;20095;-93
2022/03/04 00:08:09;;;;;;;30.92;12.70;;;0.70;99.90;;;;;;5078278;28;20036;-93
2022/03/04 00:10:35;;;;;;;29.88;13.02;;;0.70;99.90;;;;;;5078156;28;20036;-92
2022/03/04 00:13:01;;;;;;;26.80;12.23;;;0.70;99.90;;;;;;5078016;28;20028;-93
2022/03/04 00:15:27;;;;;;;27.42;12.88;;;0.60;99.90;;;;;;5094599;28;20051;-92
2022/03/04 00:17:53;;;;;;;26.38;12.88;;;0.60;99.90;;;;;;5094414;28;20040;-93
2022/03/04 00:20:18;;;;;;;28.95;12.02;;;0.60;99.90;;;;;;5094644;28;20121;-93
2022/03/04 00:22:44;;;;;;;27.00;11.95;;;0.60;99.90;;;;;;5094787;28;20079;-93
2022/03/04 00:25:11;;;;;;;28.33;12.15;;;0.60;99.90;;;;;;5094845;28;20031;-93
2022/03/04 00:27:37;;;;;;;27.23;11.95;;;0.50;99.90;;;;;;5094840;28;20138;-92
2022/03/04 00:30:04;;;;;;;25.48;11.48;;;0.50;99.90;;;;;;5077304;28;20079;-91
2022/03/04 00:32:29;;;;;;;26.25;11.40;;;0.40;99.90;;;;;;5094669;28;20079;-92
2022/03/04 00:34:55;;;;;;;26.85;11.75;;;0.40;99.90;;;;;;5077280;28;20040;-93
2022/03/04 00:37:21;;;;;;;24.67;11.82;;;0.40;99.90;;;;;;5094514;28;20044;-93
2022/03/04 00:39:46;;;;;;;25.27;11.25;;;0.40;99.90;;;;;;5094242;28;20047;-93
2022/03/04 00:42:12;;;;;;;25.35;10.98;;;0.40;99.90;;;;;;5077502;28;20048;-93
2022/03/04 00:44:38;;;;;;;23.42;11.45;;;0.30;99.90;;;;;;5094221;28;20477;-93
2022/03/04 00:47:07;;;;;;;28.17;11.35;;;0.30;99.90;;;;;;5093856;28;20036;-93
2022/03/04 00:49:33;;;;;;;22.70;10.50;;;0.50;99.90;;;;;;5077041;28;20044;-93
2022/03/04 00:51:59;;;;;;;25.95;10.98;;;0.20;99.90;;;;;;5077266;28;20136;-92
2022/03/04 00:54:24;;;;;;;28.05;11.95;;;0.10;99.90;;;;;;5077208;28;20044;-92
2022/03/04 00:56:50;;;;;;;21.15;10.40;;;0.10;99.90;;;;;;5077200;28;20381;-92
2022/03/04 00:59:16;;;;;;;24.95;11.57;;;0.00;99.90;;;;;;5076818;28;20130;-93
2022/03/04 01:01:41;;;;;;;28.30;11.68;;;-0.10;99.90;;;;;;5093942;28;20036;-92
2022/03/04 01:04:07;;;;;;;30.20;11.25;;;-0.10;99.90;;;;;;5076937;28;20043;-93
2022/03/04 01:06:34;;;;;;;27.23;11.52;;;-0.20;99.90;;;;;;5076914;28;20047;-93
2022/03/04 01:09:00;;;;;;;24.70;11.25;;;-0.40;99.90;;;;;;5094212;28;20051;-92
2022/03/04 01:11:25;;;;;;;24.77;10.00;;;0.40;99.90;;;;;;5076815;28;20044;-92
2022/03/04 01:13:51;;;;;;;26.70;11.38;;;0.00;99.90;;;;;;5093514;28;20036;-91
2022/03/04 01:16:17;;;;;;;23.88;10.98;;;-0.20;99.90;;;;;;5076635;28;20056;-93
2022/03/04 01:18:43;;;;;;;27.88;12.07;;;-0.20;99.90;;;;;;5092834;28;20044;-92
2022/03/04 01:21:08;;;;;;;27.33;11.55;;;-0.30;99.90;;;;;;5093047;28;20032;-92
2022/03/04 01:23:34;;;;;;;22.95;10.75;;;-0.30;99.90;;;;;;5093736;28;20128;-91
2022/03/04 01:26:01;;;;;;;25.13;11.38;;;-0.30;99.90;;;;;;5093339;28;20036;-92
2022/03/04 01:28:27;;;;;;;24.00;11.30;;;0.10;99.90;;;;;;5092788;28;20044;-92
2022/03/04 01:30:53;;;;;;;23.92;10.85;;;-0.30;99.90;;;;;;5076175;28;20053;-92
2022/03/04 01:33:19;;;;;;;28.67;12.25;;;-0.30;99.90;;;;;;5076477;28;20085;-92
2022/03/04 01:35:45;;;;;;;23.30;10.50;;;-0.30;99.90;;;;;;5075974;28;20437;-93
2022/03/04 01:38:11;;;;;;;26.25;11.45;;;-0.40;99.90;;;;;;5093285;28;20077;-92
2022/03/04 01:40:37;;;;;;;26.40;11.35;;;-0.40;99.90;;;;;;5093190;28;20085;-92
2022/03/04 01:43:03;;;;;;;26.00;12.45;;;-0.40;99.90;;;;;;5076257;28;20040;-92
2022/03/04 01:45:29;;;;;;;29.13;12.00;;;-0.40;99.90;;;;;;5076147;28;20040;-93
2022/03/04 01:47:55;;;;;;;26.88;11.63;;;-0.40;99.90;;;;;;5092960;28;20074;-92
2022/03/04 01:50:23;;;;;;;23.30;11.50;;;-0.40;99.90;;;;;;5075744;28;20044;-92
2022/03/04 01:52:48;;;;;;;26.17;11.40;;;-0.50;99.90;;;;;;5093072;28;20423;-93
2022/03/04 01:55:14;;;;;;;25.17;11.73;;;-0.50;99.90;;;;;;5092875;28;20032;-92
2022/03/04 01:57:40;;;;;;;26.20;12.40;;;-0.50;99.90;;;;;;5092994;28;20036;-92
2022/03/04 02:00:08;;;;;;;29.60;12.45;;;-0.50;99.90;;;;;;5092868;28;20044;-92
2022/03/04 02:02:34;;;;;;;27.85;12.07;;;-0.50;99.90;;;;;;5092731;28;20044;-92
2022/03/04 02:05:00;;;;;;;26.50;12.25;;;-0.50;99.90;;;;;;5075749;28;20040;-92
2022/03/04 02:07:25;;;;;;;30.63;12.18;;;-0.50;99.90;;;;;;5076010;28;20051;-92
2022/03/04 02:09:51;;;;;;;25.83;11.48;;;-0.50;99.90;;;;;;5076124;28;20083;-92
2022/03/04 02:12:17;;;;;;;27.83;11.88;;;-0.50;99.90;;;;;;5075884;28;20085;-92
2022/03/04 02:14:45;;;;;;;29.17;11.82;;;-0.50;99.90;;;;;;5075607;28;20040;-91
2022/03/04 02:17:10;;;;;;;28.45;13.10;;;-0.50;99.90;;;;;;5075521;28;20126;-92
2022/03/04 02:19:36;;;;;;;33.00;13.38;;;-0.50;99.90;;;;;;5075591;28;20134;-92
2022/03/04 02:22:04;;;;;;;30.52;12.65;;;-0.50;99.90;;;;;;5092387;28;20100;-92
2022/03/04 02:24:32;;;;;;;28.75;12.40;;;-0.50;99.90;;;;;;5075967;28;20044;-92
2022/03/04 02:27:01;;;;;;;31.85;13.10;;;-0.60;99.90;;;;;;5075097;28;20051;-92
2022/03/04 02:29:27;;;;;;;27.95;12.55;;;-0.60;99.90;;;;;;5092626;28;20075;-93
2022/03/04 02:31:53;;;;;;;29.15;12.52;;;-0.60;99.90;;;;;;5075534;28;20362;-92
2022/03/04 02:34:20;;;;;;;28.58;12.73;;;-0.70;99.90;;;;;;5092288;28;20119;-92
2022/03/04 02:36:47;;;;;;;28.35;13.02;;;-0.70;99.90;;;;;;5092311;28;20055;-92
2022/03/04 02:39:13;;;;;;;29.90;12.13;;;-0.70;99.90;;;;;;5092724;28;20036;-92
2022/03/04 02:41:39;;;;;;;26.25;12.45;;;-0.70;99.90;;;;;;5079787;28;20046;-93
2022/03/04 02:44:08;;;;;;;36.13;13.38;;;-0.70;99.90;;;;;;5096662;28;20036;-91
2022/03/04 02:46:34;;;;;;;31.88;13.30;;;-0.40;99.90;;;;;;5079483;28;20044;-92
2022/03/04 02:49:00;;;;;;;32.80;13.48;;;-0.80;99.90;;;;;;5079214;28;20044;-92
2022/03/04 02:51:26;;;;;;;27.02;12.85;;;-0.80;99.90;;;;;;5095862;28;20048;-92
2022/03/04 02:53:52;;;;;;;34.08;14.07;;;-0.80;99.90;;;;;;5079585;28;20451;-92
2022/03/04 02:56:18;;;;;;;36.38;13.95;;;-0.80;99.90;;;;;;5079371;28;20067;-92
2022/03/04 02:58:44;;;;;;;34.35;14.43;;;-0.80;99.90;;;;;;5095997;28;20036;-93
2022/03/04 03:01:10;;;;;;;32.45;14.35;;;-0.90;99.90;;;;;;5079163;28;20055;-93
2022/03/04 03:03:37;;;;;;;37.33;14.68;;;-0.90;99.90;;;;;;5079237;28;20366;-93
2022/03/04 03:06:03;;;;;;;31.80;13.32;;;-0.60;99.90;;;;;;5095883;28;20040;-92
2022/03/04 03:08:30;;;;;;;31.27;13.63;;;-0.60;99.90;;;;;;5079205;28;20086;-93
2022/03/04 03:10:56;;;;;;;38.92;14.27;;;-0.50;99.90;;;;;;5096209;28;20052;-93
2022/03/04 03:13:22;;;;;;;33.53;13.85;;;-0.90;99.90;;;;;;5078953;28;20048;-92
2022/03/04 03:15:49;;;;;;;32.67;13.65;;;-0.90;99.90;;;;;;5078877;28;20388;-92
2022/03/04 03:18:16;;;;;;;36.88;14.60;;;-0.80;99.90;;;;;;5095583;28;20127;-92
2022/03/04 03:20:42;;;;;;;34.05;14.05;;;-1.00;99.90;;;;;;5078751;28;20035;-92
2022/03/04 03:23:08;;;;;;;36.35;14.43;;;-1.00;99.90;;;;;;5079063;28;20558;-92
2022/03/04 03:25:33;;;;;;;37.25;13.63;;;-1.00;99.90;;;;;;5095887;28;20043;-92
2022/03/04 03:27:59;;;;;;;35.05;13.73;;;-1.00;99.90;;;;;;5078287;28;20504;-92
2022/03/04 03:30:26;;;;;;;37.15;15.23;;;-1.00;99.90;;;;;;5095725;28;20496;-92
2022/03/04 03:32:51;;;;;;;39.95;14.70;;;-1.00;99.90;;;;;;5078330;28;20047;-92
2022/03/04 03:35:17;;;;;;;38.88;14.02;;;-1.10;99.90;;;;;;5095180;28;20485;-92
2022/03/04 03:37:43;;;;;;;32.83;13.90;;;-0.80;99.90;;;;;;5078303;28;20473;-93
2022/03/04 03:40:12;;;;;;;36.45;14.27;;;-1.10;99.90;;;;;;5079024;28;20040;-92
2022/03/04 03:42:39;;;;;;;33.13;13.70;;;-1.10;99.90;;;;;;5095757;28;20032;-93
2022/03/04 03:45:06;;;;;;;39.83;14.75;;;-1.10;99.90;;;;;;5078544;28;20048;-92
2022/03/04 03:47:32;;;;;;;37.90;14.98;;;-1.20;99.90;;;;;;5078398;28;20043;-92
2022/03/04 03:49:58;;;;;;;36.72;14.93;;;-1.20;99.90;;;;;;5094886;28;20127;-92
2022/03/04 03:52:24;;;;;;;31.05;13.05;;;-1.20;99.90;;;;;;5094910;28;20127;-92
2022/03/04 03:54:49;;;;;;;37.78;15.50;;;-0.70;99.90;;;;;;5077608;28;20052;-91
2022/03/04 03:57:15;;;;;;;40.33;15.80;;;-1.20;99.90;;;;;;5095108;28;20046;-92
2022/03/04 03:59:41;;;;;;;42.45;15.55;;;-1.30;99.90;;;;;;5095039;28;20043;-91
2022/03/04 04:02:06;;;;;;;38.17;16.17;;;-1.30;99.90;;;;;;5078144;28;20036;-91
2022/03/04 04:04:34;;;;;;;38.88;15.57;;;-1.30;99.90;;;;;;5094973;28;20067;-92
2022/03/04 04:07:05;;;;;;;35.55;14.55;;;-1.30;99.90;;;;;;5077696;28;20036;-92
2022/03/04 04:09:34;;;;;;;35.00;15.88;;;-1.30;99.90;;;;;;5078568;28;20040;-91
2022/03/04 04:12:00;;;;;;;37.85;14.82;;;-1.30;99.90;;;;;;5094608;28;20131;-91
2022/03/04 04:14:27;;;;;;;35.65;15.02;;;-1.30;99.90;;;;;;5094824;28;20135;-92
2022/03/04 04:16:53;;;;;;;41.75;15.35;;;-1.40;99.90;;;;;;5077602;28;20044;-91
2022/03/04 04:19:19;;;;;;;42.63;17.10;;;-1.40;99.90;;;;;;5093927;28;20059;-91
2022/03/04 04:21:45;;;;;;;46.30;16.27;;;-1.50;99.90;;;;;;5094180;28;20385;-92
2022/03/04 04:24:11;;;;;;;41.28;16.15;;;-1.50;99.90;;;;;;5094448;28;20044;-91
2022/03/04 04:26:36;;;;;;;44.47;18.30;;;-1.50;99.90;;;;;;5077671;28;20044;-92
2022/03/04 04:29:03;;;;;;;41.63;17.38;;;-1.50;99.90;;;;;;5094487;28;20089;-92
2022/03/04 04:31:30;;;;;;;44.00;17.23;;;-1.50;99.90;;;;;;5077524;28;20109;-92
2022/03/04 04:33:55;;;;;;;49.55;18.95;;;-1.60;99.90;;;;;;5094164;28;20040;-92
2022/03/04 04:36:21;;;;;;;40.72;16.42;;;-1.60;99.90;;;;;;5093888;28;20038;-91
2022/03/04 04:38:47;;;;;;;44.97;18.30;;;-1.60;99.90;;;;;;5093962;28;20035;-91
2022/03/04 04:41:12;;;;;;;45.83;18.55;;;-1.60;99.90;;;;;;5094197;28;20032;-91
2022/03/04 04:43:38;;;;;;;51.95;18.20;;;-1.60;99.90;;;;;;5077259;28;20506;-92
2022/03/04 04:46:04;;;;;;;48.53;18.55;;;-1.70;99.90;;;;;;5077226;28;20047;-92
2022/03/04 04:48:32;;;;;;;49.15;18.80;;;-1.70;99.90;;;;;;5094055;28;20050;-92
2022/03/04 04:50:59;;;;;;;44.90;18.85;;;-1.70;99.90;;;;;;5077012;28;20043;-91
2022/03/04 04:53:26;;;;;;;53.17;20.42;;;-1.70;99.90;;;;;;5077311;28;20040;-92
2022/03/04 04:55:51;;;;;;;50.60;19.58;;;-1.80;99.90;;;;;;5093964;28;20036;-92
2022/03/04 04:58:17;;;;;;;47.22;18.88;;;-1.80;99.90;;;;;;5077083;28;20039;-92
2022/03/04 05:00:43;;;;;;;56.70;20.52;;;-1.70;99.90;;;;;;5093998;28;20039;-90
2022/03/04 05:03:09;;;;;;;57.40;20.95;;;-1.50;99.90;;;;;;5093035;28;20097;-92
2022/03/04 05:05:35;;;;;;;60.00;21.02;;;-1.70;99.90;;;;;;5076407;28;20138;-92
2022/03/04 05:08:01;;;;;;;52.75;20.00;;;-1.60;99.90;;;;;;5076828;28;20050;-92
2022/03/04 05:10:27;;;;;;;50.22;19.98;;;-1.60;99.90;;;;;;5093685;28;20036;-92
2022/03/04 05:12:53;;;;;;;60.42;20.38;;;-1.60;99.90;;;;;;5076399;28;20052;-92
2022/03/04 05:15:18;;;;;;;55.80;21.25;;;-1.60;99.90;;;;;;5076681;28;20079;-93
2022/03/04 05:17:44;;;;;;;53.03;21.23;;;-1.50;99.90;;;;;;5093578;28;20101;-93
2022/03/04 05:20:10;;;;;;;56.97;21.45;;;-1.50;99.90;;;;;;5076611;28;20079;-92
2022/03/04 05:22:36;;;;;;;55.63;21.63;;;-1.40;99.90;;;;;;5093286;28;20040;-93
2022/03/04 05:25:02;;;;;;;57.15;21.95;;;-1.40;99.90;;;;;;5076802;28;20130;-93
2022/03/04 05:27:28;;;;;;;55.50;21.80;;;-1.30;99.90;;;;;;5076758;28;20146;-93
2022/03/04 05:29:54;;;;;;;55.03;21.90;;;-1.30;99.90;;;;;;5076565;28;20131;-93
2022/03/04 05:32:19;;;;;;;51.70;20.77;;;-1.30;99.90;;;;;;5076276;28;20377;-92
2022/03/04 05:34:45;;;;;;;53.28;22.10;;;-1.20;99.90;;;;;;5093570;28;20044;-92
2022/03/04 05:37:11;;;;;;;50.20;20.75;;;-1.20;99.90;;;;;;5093170;28;20036;-93
2022/03/04 05:39:36;;;;;;;51.78;19.73;;;-1.20;99.90;;;;;;5076415;28;20477;-94
2022/03/04 05:42:02;;;;;;;48.25;19.63;;;-1.10;99.90;;;;;;5076517;28;20081;-93
2022/03/04 05:44:28;;;;;;;50.55;20.05;;;-1.10;99.90;;;;;;5076501;28;20370;-93
2022/03/04 05:46:53;;;;;;;49.08;21.23;;;-0.40;99.90;;;;;;5093143;28;20426;-93
2022/03/04 05:49:19;;;;;;;50.08;21.35;;;-1.00;99.90;;;;;;5076399;28;20123;-93
2022/03/04 05:51:45;;;;;;;48.45;20.17;;;-1.00;99.90;;;;;;5076019;28;20123;-93
2022/03/04 05:54:10;;;;;;;52.78;20.60;;;-0.90;99.90;;;;;;5093071;28;20040;-93
2022/03/04 05:56:36;;;;;;;48.50;20.38;;;-0.70;99.90;;;;;;5076316;28;20043;-92
2022/03/04 05:59:02;;;;;;;53.17;21.58;;;-0.90;99.90;;;;;;5075854;28;20032;-93
2022/03/04 06:01:27;;;;;;;50.70;22.00;;;-0.90;99.90;;;;;;5093066;28;20039;-92
2022/03/04 06:03:53;;;;;;;48.63;20.63;;;-0.80;99.90;;;;;;5092954;28;20036;-93
2022/03/04 06:06:20;;;;;;;49.75;21.80;;;-0.80;99.90;;;;;;5076038;28;20101;-93
2022/03/04 06:08:46;;;;;;;46.55;20.08;;;-0.80;99.90;;;;;;5092662;28;20091;-92
2022/03/04 06:11:12;;;;;;;44.85;21.08;;;-0.70;99.90;;;;;;5109865;28;20045;-93
2022/03/04 06:13:38;;;;;;;48.20;21.13;;;-0.70;99.90;;;;;;5075132;28;20062;-93
2022/03/04 06:16:04;;;;;;;46.60;21.10;;;-0.70;99.90;;;;;;5092246;28;20112;-93
2022/03/04 06:18:30;;;;;;;55.35;21.52;;;-0.50;99.90;;;;;;5075011;28;20458;-93
2022/03/04 06:20:56;;;;;;;49.30;21.30;;;-0.70;99.90;;;;;;5092333;28;20044;-93
2022/03/04 06:23:22;;;;;;;54.00;22.77;;;-0.70;99.90;;;;;;5092399;28;20044;-93
2022/03/04 06:25:48;;;;;;;47.63;20.60;;;-0.60;99.90;;;;;;5109412;28;20405;-92
2022/03/04 06:28:13;;;;;;;49.35;22.63;;;-0.60;99.90;;;;;;5092728;28;20130;-92
2022/03/04 06:30:40;;;;;;;51.53;21.77;;;-0.60;99.90;;;;;;5092470;28;20113;-93
2022/03/04 06:35:51;;;;;;;48.13;21.90;;;-0.60;99.90;;;;;;5091672;28;20489;-92
2022/03/04 06:38:17;;;;;;;51.67;21.92;;;-0.60;99.90;;;;;;5092085;28;20039;-92
2022/03/04 06:40:45;;;;;;;49.88;21.77;;;-0.60;99.90;;;;;;5109120;28;20052;-92
2022/03/04 06:43:11;;;;;;;56.92;24.05;;;-0.60;99.90;;;;;;5075703;28;20063;-92
2022/03/04 06:45:39;;;;;;;48.50;21.17;;;-0.50;99.90;;;;;;5075373;28;20044;-91
2022/03/04 06:48:05;;;;;;;60.83;23.27;;;-0.50;99.90;;;;;;5109523;28;20079;-91
2022/03/04 06:50:31;;;;;;;62.92;23.98;;;-0.50;99.90;;;;;;5108794;28;20084;-92
2022/03/04 06:52:56;;;;;;;57.08;23.00;;;-0.50;99.90;;;;;;5125747;28;20563;-92
2022/03/04 06:55:22;;;;;;;58.58;23.48;;;-0.60;99.90;;;;;;5091610;28;20086;-92
2022/03/04 06:57:51;;;;;;;57.63;24.73;;;0.00;99.90;;;;;;5109206;28;20036;-92
2022/03/04 07:00:18;;;;;;;62.47;24.05;;;-0.50;99.90;;;;;;5109094;28;20105;-92
2022/03/04 07:02:44;;;;;;;58.33;23.73;;;-0.70;99.90;;;;;;5092189;28;20047;-93
2022/03/04 07:05:10;;;;;;;54.47;23.55;;;-0.20;99.90;;;;;;5108988;28;20493;-92
2022/03/04 07:07:36;;;;;;;53.85;23.42;;;-0.40;99.90;;;;;;5092012;28;20048;-91
2022/03/04 07:10:04;;;;;;;51.03;23.33;;;-0.40;99.90;;;;;;5092277;28;20121;-92
2022/03/04 07:12:30;;;;;;;49.70;23.10;;;-0.40;99.90;;;;;;5074814;28;20036;-92
2022/03/04 07:14:55;;;;;;;53.00;23.60;;;-0.10;99.90;;;;;;5092950;28;20055;-92
2022/03/04 07:17:24;;;;;;;48.70;22.02;;;0.10;99.90;;;;;;5110311;28;20044;-92
2022/03/04 07:19:50;;;;;;;53.60;21.20;;;-0.20;99.90;;;;;;5092815;28;20052;-92
2022/03/04 07:22:16;;;;;;;52.10;22.88;;;-0.20;99.90;;;;;;5112601;28;20040;-92
2022/03/04 07:24:41;;;;;;;51.97;22.17;;;-0.20;99.90;;;;;;5115632;28;20082;-92
2022/03/04 07:27:07;;;;;;;52.97;22.27;;;-0.10;99.90;;;;;;5103471;28;20136;-92
2022/03/04 07:29:33;;;;;;;49.75;22.45;;;-0.10;99.90;;;;;;5104896;28;20048;-92
2022/03/04 07:31:59;;;;;;;51.40;22.77;;;0.30;99.90;;;;;;5103310;28;20046;-92
2022/03/04 07:34:25;;;;;;;54.00;22.38;;;0.30;99.90;;;;;;5140148;27;20036;-93
2022/03/04 07:36:52;;;;;;;52.80;22.80;;;0.10;99.90;;;;;;5139681;27;20040;-92
2022/03/04 07:39:18;;;;;;;48.53;21.70;;;0.10;99.90;;;;;;5085517;28;20048;-92
2022/03/04 07:41:44;;;;;;;54.13;23.48;;;0.20;99.90;;;;;;5103389;28;20097;-92
2022/03/04 07:44:11;;;;;;;52.72;22.42;;;0.20;99.90;;;;;;5085875;28;20051;-93
2022/03/04 07:46:37;;;;;;;51.85;23.42;;;0.30;99.90;;;;;;5115583;28;20054;-91
2022/03/04 07:49:04;;;;;;;46.50;22.20;;;0.70;99.90;;;;;;5112533;28;20048;-92
2022/03/04 07:51:29;;;;;;;48.13;22.60;;;1.00;99.90;;;;;;5096489;28;20089;-92
2022/03/04 07:53:55;;;;;;;50.28;21.83;;;0.80;99.90;;;;;;5096868;28;20048;-92
2022/03/04 07:56:22;;;;;;;46.60;22.08;;;0.60;99.90;;;;;;5113030;28;20401;-92
2022/03/04 07:58:47;;;;;;;45.42;21.60;;;0.70;99.90;;;;;;5129687;27;20040;-94
2022/03/04 08:01:16;;;;;;;44.15;20.08;;;1.30;99.90;;;;;;5095853;28;20036;-93
2022/03/04 08:03:42;;;;;;;42.50;21.67;;;0.50;99.90;;;;;;5112898;28;20040;-93
2022/03/04 08:06:08;;;;;;;43.17;21.30;;;1.00;99.90;;;;;;5112262;28;20047;-93
2022/03/04 08:08:34;;;;;;;45.92;21.63;;;1.00;99.90;;;;;;5078268;28;20098;-92
2022/03/04 08:11:25;;;;;;;44.72;21.95;;;1.20;99.90;;;;;;5112223;28;20048;-93
2022/03/04 08:13:51;;;;;;;47.03;21.55;;;1.50;99.90;;;;;;5129378;27;20040;-92
2022/03/04 08:16:17;;;;;;;43.70;20.52;;;1.10;99.90;;;;;;5112074;28;20055;-92
2022/03/04 08:18:42;;;;;;;46.50;22.48;;;0.90;99.90;;;;;;5129114;27;20052;-92
2022/03/04 08:21:08;;;;;;;49.95;23.23;;;0.70;99.90;;;;;;5111821;28;20044;-93
2022/03/04 08:23:34;;;;;;;49.28;22.50;;;0.80;99.90;;;;;;5112385;28;20043;-92
2022/03/04 08:26:03;;;;;;;44.83;21.77;;;1.20;99.90;;;;;;5094982;28;20083;-93
2022/03/04 08:28:30;;;;;;;41.33;21.30;;;1.30;99.90;;;;;;5094791;28;20074;-92
2022/03/04 08:30:58;;;;;;;44.40;21.25;;;1.40;99.90;;;;;;5078000;28;20052;-92
2022/03/04 08:33:24;;;;;;;45.78;21.13;;;1.60;99.90;;;;;;5078175;28;20042;-92
2022/03/04 08:35:50;;;;;;;40.80;21.02;;;1.80;99.90;;;;;;5112186;28;20047;-92
2022/03/04 08:38:19;;;;;;;47.22;23.25;;;1.80;99.90;;;;;;5129379;27;20074;-92
2022/03/04 08:40:45;;;;;;;43.53;21.55;;;2.00;99.90;;;;;;5114297;28;20048;-92
2022/03/04 08:43:10;;;;;;;42.90;21.95;;;2.00;99.90;;;;;;5111065;28;20051;-93
2022/03/04 08:45:36;;;;;;;42.95;21.52;;;2.20;99.90;;;;;;5094340;28;20486;-92
2022/03/04 08:48:06;;;;;;;41.72;20.42;;;2.20;99.90;;;;;;5094357;28;20068;-91
2022/03/04 08:50:37;;;;;;;42.35;21.30;;;1.90;99.90;;;;;;5111017;28;20488;-93
2022/03/04 08:53:03;;;;;;;;;;;2.30;99.90;;;;;;5111657;28;20044;-92
2022/03/04 08:55:30;;;;;;;46.17;20.35;;;2.30;99.90;;;;;;5077580;28;20361;-92
2022/03/04 08:57:57;;;;;;;40.75;20.95;;;1.90;99.90;;;;;;5110608;28;20098;-93
2022/03/04 09:00:24;;;;;;;43.05;20.50;;;2.20;99.90;;;;;;5094576;28;20048;-92
2022/03/04 09:02:50;;;;;;;44.30;21.70;;;2.40;99.90;;;;;;5093890;28;20044;-92
2022/03/04 09:05:17;;;;;;;44.30;21.60;;;2.10;99.90;;;;;;5076992;28;20048;-92
2022/03/04 09:07:43;;;;;;;45.40;21.95;;;2.60;99.90;;;;;;5094072;28;20059;-92
2022/03/04 09:10:09;;;;;;;50.28;22.08;;;2.50;99.90;;;;;;5077024;28;20052;-93
2022/03/04 09:12:35;;;;;;;44.28;21.85;;;2.70;99.90;;;;;;5093665;28;20083;-93
2022/03/04 09:15:02;;;;;;;45.08;22.58;;;3.40;99.90;;;;;;5093823;28;20097;-93
2022/03/04 09:17:28;;;;;;;48.15;22.90;;;3.20;99.90;;;;;;5077418;28;20044;-92
2022/03/04 09:19:54;;;;;;;44.88;22.05;;;3.60;99.90;;;;;;5111269;28;20055;-93
2022/03/04 09:22:23;;;;;;;42.13;21.75;;;4.00;99.90;;;;;;5128130;27;20044;-93
2022/03/04 09:24:49;;;;;;;38.97;20.85;;;4.00;99.90;;;;;;5093910;28;20421;-92
2022/03/04 09:27:15;;;;;;;37.33;19.58;;;4.00;99.90;;;;;;5127806;27;20131;-91
2022/03/04 09:29:41;;;;;;;40.33;21.13;;;4.80;99.90;;;;;;5077579;28;20134;-93
2022/03/04 09:32:07;;;;;;;35.60;20.20;;;5.80;99.90;;;;;;5110976;28;20040;-94
2022/03/04 09:34:34;;;;;;;34.92;20.65;;;6.20;99.90;;;;;;5095451;28;20501;-93
2022/03/04 09:37:00;;;;;;;36.40;20.50;;;6.50;99.90;;;;;;5093829;28;20194;-93
2022/03/04 09:39:26;;;;;;;37.75;20.88;;;7.70;99.90;;;;;;5110158;28;20050;-93
2022/03/04 09:41:52;;;;;;;35.88;21.63;;;7.60;99.90;;;;;;5110272;28;20051;-93
2022/03/04 09:44:18;;;;;;;37.13;21.77;;;7.00;99.90;;;;;;5128335;27;20043;-92
2022/03/04 09:46:44;;;;;;;39.65;22.00;;;6.30;99.90;;;;;;5077045;28;20536;-93
2022/03/04 09:49:14;;;;;;;42.13;23.00;;;5.80;99.90;;;;;;5076736;28;20093;-92
2022/03/04 09:51:39;;;;;;;45.58;23.35;;;5.50;99.90;;;;;;5076973;28;20109;-93
2022/03/04 09:54:05;;;;;;;42.95;22.27;;;5.30;99.90;;;;;;5110766;28;20052;-93
2022/03/04 09:56:31;;;;;;;41.33;22.30;;;5.40;99.90;;;;;;5076653;28;20052;-93
2022/03/04 09:58:57;;;;;;;40.38;22.52;;;5.50;99.90;;;;;;5076757;28;20470;-94
2022/03/04 10:01:22;;;;;;;40.05;21.83;;;5.50;99.90;;;;;;5110017;28;20044;-93
2022/03/04 10:03:50;;;;;;;39.13;20.67;;;6.60;99.90;;;;;;5109646;28;20083;-93
2022/03/04 10:06:17;;;;;;;38.03;22.08;;;7.90;99.90;;;;;;5092812;28;20055;-93
2022/03/04 10:08:45;;;;;;;38.60;21.73;;;9.50;99.90;;;;;;5093516;28;20040;-94
2022/03/04 10:11:12;;;;;;;36.78;20.45;;;10.70;99.90;;;;;;5076698;28;20473;-94
2022/03/04 10:13:42;;;;;;;36.53;21.70;;;11.50;99.90;;;;;;5076912;28;20051;-94
2022/03/04 10:16:08;;;;;;;39.15;22.98;;;11.90;99.90;;;;;;5111211;28;20075;-95
2022/03/04 10:18:33;;;;;;;36.42;22.48;;;12.30;99.90;;;;;;5110819;28;20059;-94
2022/03/04 10:20:59;;;;;;;39.05;22.83;;;12.30;99.90;;;;;;5112684;28;20055;-94
2022/03/04 10:23:26;;;;;;;39.05;24.02;;;11.30;99.90;;;;;;5111982;28;20058;-93
2022/03/04 10:25:55;;;;;;;40.92;24.45;;;10.70;99.90;;;;;;5098431;28;20078;-93
2022/03/04 10:28:26;;;;;;;36.83;22.73;;;10.40;99.90;;;;;;5116815;28;20052;-93
2022/03/04 10:30:54;;;;;;;37.42;22.40;;;10.40;99.90;;;;;;5090493;28;20044;-93
2022/03/04 10:33:25;;;;;;;36.13;23.02;;;10.10;99.90;;;;;;5094736;28;20127;-93
2022/03/04 10:36:09;;;;;;;35.10;21.90;;;10.70;99.90;;;;;;5082359;28;20044;-93
2022/03/04 10:38:36;;;;;;;37.60;23.13;;;11.80;99.90;;;;;;5087243;28;20048;-94
2022/03/04 10:41:29;;;;;;;33.58;21.58;;;12.20;99.50;;;;;;5076812;28;20105;-94
2022/03/04 10:43:56;;;;;;;38.05;22.55;;;13.00;94.70;;;;;;5092716;28;20127;-94
2022/03/04 10:46:22;;;;;;;36.97;22.40;;;13.40;92.50;;;;;;5076991;28;20044;-93
2022/03/04 10:48:56;;;;;;;35.83;21.58;;;13.70;91.20;;;;;;5092421;28;20047;-93
2022/03/04 10:51:39;;;;;;;34.65;21.15;;;13.30;90.70;;;;;;5075663;28;20044;-94
2022/03/04 10:54:12;;;;;;;32.67;21.25;;;13.70;83.10;;;;;;5075746;28;20189;-92
2022/03/04 10:56:55;;;;;;;35.10;22.75;;;14.50;81.80;;;;;;5075865;28;20135;-93
2022/03/04 10:59:22;;;;;;;32.55;21.30;;;14.70;73.80;;;;;;5075439;28;20036;-92
2022/03/04 11:01:49;;;;;;;33.75;21.80;;;15.20;77.40;;;;;;5095540;28;20130;-92
2022/03/04 11:04:19;;;;;;;34.20;21.65;;;15.50;71.50;;;;;;5079532;28;20048;-93
2022/03/04 11:06:47;;;;;;;32.38;21.25;;;16.00;67.50;;;;;;5113506;28;20160;-93
2022/03/04 11:09:15;;;;;;;31.33;21.02;;;16.20;65.50;;;;;;5078972;28;20036;-92
2022/03/04 11:11:43;;;;;;;31.08;21.67;;;16.60;64.50;;;;;;5096746;28;20036;-93
2022/03/04 11:14:12;;;;;;;34.72;22.58;;;16.30;63.30;;;;;;5080572;28;20048;-92
2022/03/04 11:16:38;;;;;;;33.20;22.38;;;16.10;63.80;;;;;;5079510;28;20048;-93
2022/03/04 11:19:06;;;;;;;31.58;21.30;;;16.50;63.10;;;;;;5095977;28;20055;-93
2022/03/04 11:21:32;;;;;;;31.48;21.85;;;16.80;61.90;;;;;;5096335;28;20126;-93
2022/03/04 11:23:58;;;;;;;31.73;22.08;;;16.70;62.10;;;;;;5113414;28;20484;-94
2022/03/04 11:26:27;;;;;;;32.28;21.40;;;17.10;61.20;;;;;;5079705;28;20040;-93
2022/03/04 11:28:54;;;;;;;31.20;21.25;;;17.30;60.00;;;;;;5079189;28;20097;-93
2022/03/04 11:31:25;;;;;;;31.55;20.88;;;17.40;59.10;;;;;;5096515;28;20051;-93
2022/03/04 11:33:52;;;;;;;28.85;20.83;;;17.60;57.60;;;;;;5078713;28;20193;-94
2022/03/04 11:36:35;;;;;;;30.83;20.08;;;18.10;58.20;;;;;;5096664;28;20055;-93
2022/03/04 11:39:05;;;;;;;28.48;20.13;;;17.90;53.00;;;;;;5115232;28;20485;-93
2022/03/04 11:41:39;;;;;;;26.13;19.07;;;17.80;55.10;;;;;;5082266;28;20043;-94
2022/03/04 11:44:13;;;;;;;27.45;18.48;;;17.80;54.20;;;;;;5078933;28;20286;-93
2022/03/04 11:46:45;;;;;;;27.27;18.75;;;17.80;55.20;;;;;;5078673;28;20048;-93
2022/03/04 11:49:23;;;;;;;25.60;18.83;;;17.90;53.40;;;;;;5081188;28;20040;-94
2022/03/04 11:52:11;;;;;;;26.02;17.83;;;18.00;53.10;;;;;;5112700;28;20044;-94
2022/03/04 11:54:37;;;;;;;24.63;17.80;;;18.20;52.40;;;;;;5112658;28;20044;-93
2022/03/04 11:57:26;;;;;;;26.05;18.50;;;18.40;52.80;;;;;;5112747;28;20048;-94
2022/03/04 12:00:11;;;;;;;23.70;17.23;;;18.50;51.40;;;;;;5096215;28;20140;-94
2022/03/04 12:02:38;;;;;;;22.35;16.65;;;18.70;50.60;;;;;;5078340;28;20075;-94
2022/03/04 12:05:13;;;;;;;24.40;17.70;;;18.90;52.00;;;;;;5095670;28;20047;-95
2022/03/04 12:07:46;;;;;;;24.17;16.75;;;18.90;50.10;;;;;;5078849;28;20102;-94
2022/03/04 12:10:35;;;;;;;22.83;15.88;;;18.90;51.00;;;;;;5096275;28;20056;-95
2022/03/04 12:13:12;;;;;;;20.75;15.77;;;19.20;50.00;;;;;;5099635;28;20073;-94
2022/03/04 12:15:40;;;;;;;22.08;16.38;;;19.40;49.50;;;;;;5119712;28;20044;-96
2022/03/04 12:18:05;;;;;;;21.92;16.00;;;19.50;49.20;;;;;;5086124;28;20368;-94
2022/03/04 12:20:40;;;;;;;20.65;15.13;;;19.50;49.40;;;;;;5120664;28;20055;-94
2022/03/04 12:23:16;;;;;;;18.85;14.38;;;19.60;47.60;;;;;;5106330;28;20052;-93
2022/03/04 12:25:54;;;;;;;20.83;14.70;;;19.60;47.80;;;;;;5136981;27;20137;-95
2022/03/04 12:28:21;;;;;;;21.02;14.27;;;19.60;47.40;;;;;;5119385;28;20040;-95
2022/03/04 12:31:07;;;;;;;19.25;13.75;;;19.60;47.20;;;;;;5087314;28;20048;-94
2022/03/04 12:33:41;;;;;;;20.73;13.63;;;19.80;46.40;;;;;;5117885;28;20083;-94